sensor_id;sensor_type;location;lat;lon;timestamp;P1;durP1;ratioP1;P2;durP2;ratioP2
61393;SDS011;48555;50.952;-0.120;2024-02-26T00:00:25;3.53;;;1.00;;
61393;SDS011;48555;50.952;-0.120;2024-02-26T00:02:50;2.90;;;0.98;;
61393;SDS011;48555;50.952;-0.120;2024-02-26T00:05:16;4.20;;;1.00;;
61393;SDS011;48555;50.952;-0.120;2024-02-26T00:07:41;5.22;;;1.40;;
61393;SDS011;48555;50.952;-0.120;2024-02-26T00:10:07;2.55;;;1.15;;
61393;SDS011;48555;50.952;-0.120;2024-02-26T00:12:33;2.08;;;0.98;;
61393;SDS011;48555;50.952;-0.120;2024-02-26T00:14:59;1.33;;;0.90;;
61393;SDS011;48555;50.952;-0.120;2024-02-26T00:17:24;1.92;;;1.02;;
61393;SDS011;48555;50.952;-0.120;2024-02-26T00:19:50;3.25;;;1.27;;
61393;SDS011;48555;50.952;-0.120;2024-02-26T00:22:15;1.92;;;1.00;;
61393;SDS011;48555;50.952;-0.120;2024-02-26T00:24:40;1.80;;;0.90;;
61393;SDS011;48555;50.952;-0.120;2024-02-26T00:27:06;4.57;;;2.05;;
61393;SDS011;48555;50.952;-0.120;2024-02-26T00:29:31;3.92;;;1.80;;
61393;SDS011;48555;50.952;-0.120;2024-02-26T00:31:57;5.68;;;1.45;;
61393;SDS011;48555;50.952;-0.120;2024-02-26T00:34:23;4.00;;;2.00;;
61393;SDS011;48555;50.952;-0.120;2024-02-26T00:36:49;4.50;;;1.70;;
61393;SDS011;48555;50.952;-0.120;2024-02-26T00:39:14;3.03;;;1.70;;
61393;SDS011;48555;50.952;-0.120;2024-02-26T00:41:40;6.45;;;2.28;;
61393;SDS011;48555;50.952;-0.120;2024-02-26T00:44:05;4.07;;;1.73;;
61393;SDS011;48555;50.952;-0.120;2024-02-26T00:46:31;3.90;;;1.92;;
61393;SDS011;48555;50.952;-0.120;2024-02-26T00:48:57;4.43;;;2.25;;
61393;SDS011;48555;50.952;-0.120;2024-02-26T00:51:22;3.88;;;2.13;;
61393;SDS011;48555;50.952;-0.120;2024-02-26T00:53:47;6.18;;;2.00;;
61393;SDS011;48555;50.952;-0.120;2024-02-26T00:56:13;8.32;;;2.40;;
61393;SDS011;48555;50.952;-0.120;2024-02-26T00:58:38;3.83;;;2.20;;
61393;SDS011;48555;50.952;-0.120;2024-02-26T01:01:04;5.40;;;2.53;;
61393;SDS011;48555;50.952;-0.120;2024-02-26T01:03:29;7.03;;;2.60;;
61393;SDS011;48555;50.952;-0.120;2024-02-26T01:05:54;5.88;;;2.95;;
61393;SDS011;48555;50.952;-0.120;2024-02-26T01:08:20;5.15;;;2.85;;
61393;SDS011;48555;50.952;-0.120;2024-02-26T01:10:45;7.13;;;2.50;;
61393;SDS011;48555;50.952;-0.120;2024-02-26T01:13:11;6.35;;;2.63;;
61393;SDS011;48555;50.952;-0.120;2024-02-26T01:15:36;10.05;;;3.55;;
61393;SDS011;48555;50.952;-0.120;2024-02-26T01:18:02;10.23;;;2.95;;
61393;SDS011;48555;50.952;-0.120;2024-02-26T01:20:27;7.32;;;2.92;;
61393;SDS011;48555;50.952;-0.120;2024-02-26T01:22:53;5.65;;;2.60;;
61393;SDS011;48555;50.952;-0.120;2024-02-26T01:25:18;8.27;;;3.50;;
61393;SDS011;48555;50.952;-0.120;2024-02-26T01:27:43;7.13;;;2.85;;
61393;SDS011;48555;50.952;-0.120;2024-02-26T01:30:09;9.25;;;3.40;;
61393;SDS011;48555;50.952;-0.120;2024-02-26T01:32:35;7.65;;;2.95;;
61393;SDS011;48555;50.952;-0.120;2024-02-26T01:35:01;8.27;;;2.85;;
61393;SDS011;48555;50.952;-0.120;2024-02-26T01:37:28;11.85;;;3.58;;
61393;SDS011;48555;50.952;-0.120;2024-02-26T01:39:54;13.15;;;4.00;;
61393;SDS011;48555;50.952;-0.120;2024-02-26T01:42:20;7.40;;;3.67;;
61393;SDS011;48555;50.952;-0.120;2024-02-26T01:44:45;8.13;;;3.83;;
61393;SDS011;48555;50.952;-0.120;2024-02-26T01:47:11;7.75;;;3.10;;
61393;SDS011;48555;50.952;-0.120;2024-02-26T01:49:37;8.10;;;3.72;;
61393;SDS011;48555;50.952;-0.120;2024-02-26T01:52:04;11.02;;;4.80;;
61393;SDS011;48555;50.952;-0.120;2024-02-26T01:54:31;11.80;;;4.75;;
61393;SDS011;48555;50.952;-0.120;2024-02-26T01:57:02;9.23;;;4.60;;
61393;SDS011;48555;50.952;-0.120;2024-02-26T01:59:28;12.43;;;4.93;;
61393;SDS011;48555;50.952;-0.120;2024-02-26T02:01:55;12.77;;;4.90;;
61393;SDS011;48555;50.952;-0.120;2024-02-26T02:04:24;8.85;;;4.63;;
61393;SDS011;48555;50.952;-0.120;2024-02-26T02:06:50;10.23;;;5.30;;
61393;SDS011;48555;50.952;-0.120;2024-02-26T02:09:17;12.25;;;4.80;;
61393;SDS011;48555;50.952;-0.120;2024-02-26T02:11:43;10.82;;;4.63;;
61393;SDS011;48555;50.952;-0.120;2024-02-26T02:14:09;12.60;;;5.25;;
61393;SDS011;48555;50.952;-0.120;2024-02-26T02:16:34;10.93;;;4.00;;
61393;SDS011;48555;50.952;-0.120;2024-02-26T02:18:59;12.13;;;5.10;;
61393;SDS011;48555;50.952;-0.120;2024-02-26T02:21:25;9.73;;;5.00;;
61393;SDS011;48555;50.952;-0.120;2024-02-26T02:23:50;13.55;;;4.85;;
61393;SDS011;48555;50.952;-0.120;2024-02-26T02:26:16;15.15;;;5.43;;
61393;SDS011;48555;50.952;-0.120;2024-02-26T02:28:42;12.70;;;4.78;;
61393;SDS011;48555;50.952;-0.120;2024-02-26T02:31:07;11.52;;;5.00;;
61393;SDS011;48555;50.952;-0.120;2024-02-26T02:33:34;8.63;;;4.13;;
61393;SDS011;48555;50.952;-0.120;2024-02-26T02:35:59;13.77;;;5.22;;
61393;SDS011;48555;50.952;-0.120;2024-02-26T02:38:25;15.93;;;5.70;;
61393;SDS011;48555;50.952;-0.120;2024-02-26T02:40:54;12.65;;;6.07;;
61393;SDS011;48555;50.952;-0.120;2024-02-26T02:43:19;10.30;;;4.55;;
61393;SDS011;48555;50.952;-0.120;2024-02-26T02:45:45;16.85;;;5.43;;
61393;SDS011;48555;50.952;-0.120;2024-02-26T02:48:10;12.27;;;5.10;;
61393;SDS011;48555;50.952;-0.120;2024-02-26T02:50:36;12.38;;;5.18;;
61393;SDS011;48555;50.952;-0.120;2024-02-26T02:53:01;11.18;;;4.82;;
61393;SDS011;48555;50.952;-0.120;2024-02-26T02:55:27;11.90;;;4.93;;
61393;SDS011;48555;50.952;-0.120;2024-02-26T02:57:53;10.18;;;5.18;;
61393;SDS011;48555;50.952;-0.120;2024-02-26T03:00:18;11.55;;;5.53;;
61393;SDS011;48555;50.952;-0.120;2024-02-26T03:02:44;8.82;;;4.32;;
61393;SDS011;48555;50.952;-0.120;2024-02-26T03:05:10;12.70;;;4.95;;
61393;SDS011;48555;50.952;-0.120;2024-02-26T03:07:35;12.65;;;6.03;;
61393;SDS011;48555;50.952;-0.120;2024-02-26T03:10:01;14.30;;;5.70;;
61393;SDS011;48555;50.952;-0.120;2024-02-26T03:12:26;10.15;;;4.97;;
61393;SDS011;48555;50.952;-0.120;2024-02-26T03:14:52;12.15;;;5.25;;
61393;SDS011;48555;50.952;-0.120;2024-02-26T03:17:19;10.05;;;4.80;;
61393;SDS011;48555;50.952;-0.120;2024-02-26T03:19:45;10.40;;;5.20;;
61393;SDS011;48555;50.952;-0.120;2024-02-26T03:22:18;12.27;;;5.43;;
61393;SDS011;48555;50.952;-0.120;2024-02-26T03:24:43;13.55;;;6.13;;
61393;SDS011;48555;50.952;-0.120;2024-02-26T03:27:08;11.73;;;5.97;;
61393;SDS011;48555;50.952;-0.120;2024-02-26T03:29:35;9.25;;;4.40;;
61393;SDS011;48555;50.952;-0.120;2024-02-26T03:32:00;7.47;;;4.13;;
61393;SDS011;48555;50.952;-0.120;2024-02-26T03:34:26;10.63;;;6.00;;
61393;SDS011;48555;50.952;-0.120;2024-02-26T03:36:52;13.10;;;6.18;;
61393;SDS011;48555;50.952;-0.120;2024-02-26T03:39:17;10.32;;;5.07;;
61393;SDS011;48555;50.952;-0.120;2024-02-26T03:41:42;8.68;;;4.95;;
61393;SDS011;48555;50.952;-0.120;2024-02-26T03:44:08;10.23;;;5.63;;
61393;SDS011;48555;50.952;-0.120;2024-02-26T03:46:33;12.15;;;5.95;;
61393;SDS011;48555;50.952;-0.120;2024-02-26T03:48:58;9.75;;;5.43;;
61393;SDS011;48555;50.952;-0.120;2024-02-26T03:51:24;11.13;;;5.15;;
61393;SDS011;48555;50.952;-0.120;2024-02-26T03:53:49;10.52;;;5.72;;
61393;SDS011;48555;50.952;-0.120;2024-02-26T03:56:14;11.13;;;5.47;;
61393;SDS011;48555;50.952;-0.120;2024-02-26T03:58:40;9.43;;;5.35;;
61393;SDS011;48555;50.952;-0.120;2024-02-26T04:01:08;8.43;;;4.45;;
61393;SDS011;48555;50.952;-0.120;2024-02-26T04:03:34;9.98;;;5.18;;
61393;SDS011;48555;50.952;-0.120;2024-02-26T04:06:00;10.07;;;4.90;;
61393;SDS011;48555;50.952;-0.120;2024-02-26T04:08:27;7.32;;;3.40;;
61393;SDS011;48555;50.952;-0.120;2024-02-26T04:10:52;8.43;;;4.28;;
61393;SDS011;48555;50.952;-0.120;2024-02-26T04:13:18;10.27;;;4.85;;
61393;SDS011;48555;50.952;-0.120;2024-02-26T04:15:43;9.98;;;4.70;;
61393;SDS011;48555;50.952;-0.120;2024-02-26T04:18:09;9.02;;;4.80;;
61393;SDS011;48555;50.952;-0.120;2024-02-26T04:20:34;10.13;;;4.80;;
61393;SDS011;48555;50.952;-0.120;2024-02-26T04:22:59;10.20;;;5.47;;
61393;SDS011;48555;50.952;-0.120;2024-02-26T04:25:25;11.63;;;5.38;;
61393;SDS011;48555;50.952;-0.120;2024-02-26T04:27:50;13.07;;;5.38;;
61393;SDS011;48555;50.952;-0.120;2024-02-26T04:30:15;9.73;;;4.75;;
61393;SDS011;48555;50.952;-0.120;2024-02-26T04:32:42;9.68;;;5.18;;
61393;SDS011;48555;50.952;-0.120;2024-02-26T04:35:07;10.90;;;4.78;;
61393;SDS011;48555;50.952;-0.120;2024-02-26T04:37:33;11.93;;;5.88;;
61393;SDS011;48555;50.952;-0.120;2024-02-26T04:39:59;14.68;;;5.55;;
61393;SDS011;48555;50.952;-0.120;2024-02-26T04:42:24;9.73;;;5.22;;
61393;SDS011;48555;50.952;-0.120;2024-02-26T04:44:50;9.82;;;5.65;;
61393;SDS011;48555;50.952;-0.120;2024-02-26T04:47:15;10.95;;;5.30;;
61393;SDS011;48555;50.952;-0.120;2024-02-26T04:49:41;10.30;;;5.50;;
61393;SDS011;48555;50.952;-0.120;2024-02-26T04:52:06;12.13;;;5.25;;
61393;SDS011;48555;50.952;-0.120;2024-02-26T04:54:31;11.18;;;6.03;;
61393;SDS011;48555;50.952;-0.120;2024-02-26T04:56:57;10.15;;;5.22;;
61393;SDS011;48555;50.952;-0.120;2024-02-26T04:59:22;9.65;;;4.90;;
61393;SDS011;48555;50.952;-0.120;2024-02-26T05:01:47;14.13;;;5.88;;
61393;SDS011;48555;50.952;-0.120;2024-02-26T05:04:13;8.35;;;4.80;;
61393;SDS011;48555;50.952;-0.120;2024-02-26T05:06:38;9.57;;;5.75;;
61393;SDS011;48555;50.952;-0.120;2024-02-26T05:09:03;9.40;;;4.72;;
61393;SDS011;48555;50.952;-0.120;2024-02-26T05:11:29;12.50;;;5.53;;
61393;SDS011;48555;50.952;-0.120;2024-02-26T05:13:54;9.30;;;5.32;;
61393;SDS011;48555;50.952;-0.120;2024-02-26T05:16:19;8.30;;;5.03;;
61393;SDS011;48555;50.952;-0.120;2024-02-26T05:18:46;10.65;;;5.10;;
61393;SDS011;48555;50.952;-0.120;2024-02-26T05:21:12;11.80;;;5.70;;
61393;SDS011;48555;50.952;-0.120;2024-02-26T05:23:37;9.38;;;5.22;;
61393;SDS011;48555;50.952;-0.120;2024-02-26T05:26:02;9.57;;;4.82;;
61393;SDS011;48555;50.952;-0.120;2024-02-26T05:28:28;10.80;;;5.15;;
61393;SDS011;48555;50.952;-0.120;2024-02-26T05:30:53;9.00;;;4.93;;
61393;SDS011;48555;50.952;-0.120;2024-02-26T05:33:19;10.98;;;4.50;;
61393;SDS011;48555;50.952;-0.120;2024-02-26T05:35:44;9.48;;;3.97;;
61393;SDS011;48555;50.952;-0.120;2024-02-26T05:38:09;10.68;;;4.60;;
61393;SDS011;48555;50.952;-0.120;2024-02-26T05:40:35;7.25;;;4.15;;
61393;SDS011;48555;50.952;-0.120;2024-02-26T05:43:00;11.63;;;4.72;;
61393;SDS011;48555;50.952;-0.120;2024-02-26T05:45:26;8.88;;;4.85;;
61393;SDS011;48555;50.952;-0.120;2024-02-26T05:47:51;8.80;;;4.07;;
61393;SDS011;48555;50.952;-0.120;2024-02-26T05:50:17;11.25;;;4.25;;
61393;SDS011;48555;50.952;-0.120;2024-02-26T05:52:42;11.25;;;4.18;;
61393;SDS011;48555;50.952;-0.120;2024-02-26T05:55:08;9.98;;;4.03;;
61393;SDS011;48555;50.952;-0.120;2024-02-26T05:57:34;6.95;;;4.20;;
61393;SDS011;48555;50.952;-0.120;2024-02-26T05:59:59;8.07;;;4.10;;
61393;SDS011;48555;50.952;-0.120;2024-02-26T06:02:30;7.82;;;3.97;;
61393;SDS011;48555;50.952;-0.120;2024-02-26T06:04:56;6.05;;;3.58;;
61393;SDS011;48555;50.952;-0.120;2024-02-26T06:07:22;8.43;;;3.35;;
61393;SDS011;48555;50.952;-0.120;2024-02-26T06:09:48;9.63;;;4.10;;
61393;SDS011;48555;50.952;-0.120;2024-02-26T06:12:13;7.50;;;4.00;;
61393;SDS011;48555;50.952;-0.120;2024-02-26T06:14:39;10.77;;;3.80;;
61393;SDS011;48555;50.952;-0.120;2024-02-26T06:17:04;9.57;;;3.65;;
61393;SDS011;48555;50.952;-0.120;2024-02-26T06:19:29;7.05;;;3.20;;
61393;SDS011;48555;50.952;-0.120;2024-02-26T06:21:55;7.57;;;3.20;;
61393;SDS011;48555;50.952;-0.120;2024-02-26T06:24:20;6.72;;;3.38;;
61393;SDS011;48555;50.952;-0.120;2024-02-26T06:26:47;9.52;;;3.25;;
61393;SDS011;48555;50.952;-0.120;2024-02-26T06:29:12;8.68;;;3.67;;
61393;SDS011;48555;50.952;-0.120;2024-02-26T06:31:38;9.38;;;3.55;;
61393;SDS011;48555;50.952;-0.120;2024-02-26T06:34:03;6.05;;;3.22;;
61393;SDS011;48555;50.952;-0.120;2024-02-26T06:36:29;8.95;;;2.90;;
61393;SDS011;48555;50.952;-0.120;2024-02-26T06:38:56;5.88;;;2.45;;
61393;SDS011;48555;50.952;-0.120;2024-02-26T06:41:21;6.57;;;2.42;;
61393;SDS011;48555;50.952;-0.120;2024-02-26T06:43:52;7.85;;;2.60;;
61393;SDS011;48555;50.952;-0.120;2024-02-26T06:46:18;5.18;;;2.50;;
61393;SDS011;48555;50.952;-0.120;2024-02-26T06:48:43;8.60;;;2.40;;
61393;SDS011;48555;50.952;-0.120;2024-02-26T06:51:08;7.13;;;2.45;;
61393;SDS011;48555;50.952;-0.120;2024-02-26T06:53:33;7.97;;;2.58;;
61393;SDS011;48555;50.952;-0.120;2024-02-26T06:55:59;8.43;;;2.60;;
61393;SDS011;48555;50.952;-0.120;2024-02-26T06:58:24;8.80;;;2.50;;
61393;SDS011;48555;50.952;-0.120;2024-02-26T07:00:49;6.05;;;2.75;;
61393;SDS011;48555;50.952;-0.120;2024-02-26T07:03:15;6.20;;;2.25;;
61393;SDS011;48555;50.952;-0.120;2024-02-26T07:05:40;4.10;;;2.13;;
61393;SDS011;48555;50.952;-0.120;2024-02-26T07:08:05;7.20;;;2.28;;
61393;SDS011;48555;50.952;-0.120;2024-02-26T07:10:31;9.10;;;3.08;;
61393;SDS011;48555;50.952;-0.120;2024-02-26T07:12:57;10.25;;;2.97;;
61393;SDS011;48555;50.952;-0.120;2024-02-26T07:15:22;8.18;;;2.30;;
61393;SDS011;48555;50.952;-0.120;2024-02-26T07:17:47;9.80;;;2.83;;
61393;SDS011;48555;50.952;-0.120;2024-02-26T07:20:14;9.00;;;2.58;;
61393;SDS011;48555;50.952;-0.120;2024-02-26T07:22:39;5.45;;;2.03;;
61393;SDS011;48555;50.952;-0.120;2024-02-26T07:25:06;5.75;;;1.90;;
61393;SDS011;48555;50.952;-0.120;2024-02-26T07:27:33;8.23;;;2.65;;
61393;SDS011;48555;50.952;-0.120;2024-02-26T07:29:59;7.85;;;2.47;;
61393;SDS011;48555;50.952;-0.120;2024-02-26T07:32:24;8.05;;;2.42;;
61393;SDS011;48555;50.952;-0.120;2024-02-26T07:34:49;6.85;;;2.00;;
61393;SDS011;48555;50.952;-0.120;2024-02-26T07:37:15;5.80;;;1.90;;
61393;SDS011;48555;50.952;-0.120;2024-02-26T07:39:40;7.45;;;2.30;;
61393;SDS011;48555;50.952;-0.120;2024-02-26T07:42:05;6.60;;;2.05;;
61393;SDS011;48555;50.952;-0.120;2024-02-26T07:44:31;9.25;;;3.00;;
61393;SDS011;48555;50.952;-0.120;2024-02-26T07:46:56;5.78;;;2.13;;
61393;SDS011;48555;50.952;-0.120;2024-02-26T07:49:22;5.57;;;2.10;;
61393;SDS011;48555;50.952;-0.120;2024-02-26T07:51:47;4.15;;;1.70;;
61393;SDS011;48555;50.952;-0.120;2024-02-26T07:54:12;5.43;;;2.00;;
61393;SDS011;48555;50.952;-0.120;2024-02-26T07:56:38;5.13;;;1.70;;
61393;SDS011;48555;50.952;-0.120;2024-02-26T07:59:03;5.45;;;1.90;;
61393;SDS011;48555;50.952;-0.120;2024-02-26T08:01:28;5.22;;;1.90;;
61393;SDS011;48555;50.952;-0.120;2024-02-26T08:03:54;5.80;;;1.90;;
61393;SDS011;48555;50.952;-0.120;2024-02-26T08:06:19;6.40;;;1.75;;
61393;SDS011;48555;50.952;-0.120;2024-02-26T08:08:44;4.40;;;1.50;;
61393;SDS011;48555;50.952;-0.120;2024-02-26T08:11:10;4.13;;;1.50;;
61393;SDS011;48555;50.952;-0.120;2024-02-26T08:13:35;4.72;;;1.42;;
61393;SDS011;48555;50.952;-0.120;2024-02-26T08:16:01;6.05;;;2.05;;
61393;SDS011;48555;50.952;-0.120;2024-02-26T08:18:26;4.88;;;1.60;;
61393;SDS011;48555;50.952;-0.120;2024-02-26T08:20:51;4.22;;;1.40;;
61393;SDS011;48555;50.952;-0.120;2024-02-26T08:23:17;3.67;;;1.30;;
61393;SDS011;48555;50.952;-0.120;2024-02-26T08:25:42;4.03;;;1.52;;
61393;SDS011;48555;50.952;-0.120;2024-02-26T08:28:08;4.65;;;1.50;;
61393;SDS011;48555;50.952;-0.120;2024-02-26T08:30:33;3.88;;;1.75;;
61393;SDS011;48555;50.952;-0.120;2024-02-26T08:32:59;5.97;;;1.60;;
61393;SDS011;48555;50.952;-0.120;2024-02-26T08:35:24;5.25;;;1.80;;
61393;SDS011;48555;50.952;-0.120;2024-02-26T08:37:50;3.78;;;1.58;;
61393;SDS011;48555;50.952;-0.120;2024-02-26T08:40:15;4.82;;;1.63;;
61393;SDS011;48555;50.952;-0.120;2024-02-26T08:42:40;4.30;;;1.60;;
61393;SDS011;48555;50.952;-0.120;2024-02-26T08:45:07;5.45;;;1.98;;
61393;SDS011;48555;50.952;-0.120;2024-02-26T08:47:33;2.47;;;1.35;;
61393;SDS011;48555;50.952;-0.120;2024-02-26T08:49:58;3.42;;;1.40;;
61393;SDS011;48555;50.952;-0.120;2024-02-26T08:52:23;3.35;;;1.30;;
61393;SDS011;48555;50.952;-0.120;2024-02-26T08:54:49;4.50;;;1.45;;
61393;SDS011;48555;50.952;-0.120;2024-02-26T08:57:15;8.48;;;2.00;;
61393;SDS011;48555;50.952;-0.120;2024-02-26T08:59:40;5.80;;;1.60;;
61393;SDS011;48555;50.952;-0.120;2024-02-26T09:02:06;2.85;;;1.25;;
61393;SDS011;48555;50.952;-0.120;2024-02-26T09:04:33;4.53;;;1.40;;
61393;SDS011;48555;50.952;-0.120;2024-02-26T09:06:59;4.40;;;1.63;;
61393;SDS011;48555;50.952;-0.120;2024-02-26T09:09:24;5.95;;;1.35;;
61393;SDS011;48555;50.952;-0.120;2024-02-26T09:11:51;6.28;;;1.67;;
61393;SDS011;48555;50.952;-0.120;2024-02-26T09:14:17;3.28;;;2.10;;
61393;SDS011;48555;50.952;-0.120;2024-02-26T09:16:43;2.60;;;1.30;;
61393;SDS011;48555;50.952;-0.120;2024-02-26T09:19:08;2.80;;;1.13;;
61393;SDS011;48555;50.952;-0.120;2024-02-26T09:21:33;7.38;;;1.33;;
61393;SDS011;48555;50.952;-0.120;2024-02-26T09:23:59;2.88;;;1.17;;
61393;SDS011;48555;50.952;-0.120;2024-02-26T09:26:24;3.80;;;1.40;;
61393;SDS011;48555;50.952;-0.120;2024-02-26T09:28:49;3.80;;;1.25;;
61393;SDS011;48555;50.952;-0.120;2024-02-26T09:31:15;3.08;;;1.10;;
61393;SDS011;48555;50.952;-0.120;2024-02-26T09:33:41;3.20;;;1.10;;
61393;SDS011;48555;50.952;-0.120;2024-02-26T09:36:07;2.00;;;1.25;;
61393;SDS011;48555;50.952;-0.120;2024-02-26T09:38:34;3.53;;;1.23;;
61393;SDS011;48555;50.952;-0.120;2024-02-26T09:41:02;2.65;;;1.30;;
61393;SDS011;48555;50.952;-0.120;2024-02-26T09:43:32;2.47;;;0.93;;
61393;SDS011;48555;50.952;-0.120;2024-02-26T09:46:01;4.25;;;1.10;;
61393;SDS011;48555;50.952;-0.120;2024-02-26T09:48:26;4.90;;;1.15;;
61393;SDS011;48555;50.952;-0.120;2024-02-26T09:50:53;1.77;;;0.80;;
61393;SDS011;48555;50.952;-0.120;2024-02-26T09:53:18;2.17;;;1.10;;
61393;SDS011;48555;50.952;-0.120;2024-02-26T09:55:46;1.20;;;0.95;;
61393;SDS011;48555;50.952;-0.120;2024-02-26T09:58:12;2.72;;;0.77;;
61393;SDS011;48555;50.952;-0.120;2024-02-26T10:00:43;3.72;;;1.10;;
61393;SDS011;48555;50.952;-0.120;2024-02-26T10:03:16;2.38;;;0.98;;
61393;SDS011;48555;50.952;-0.120;2024-02-26T10:05:46;1.52;;;0.88;;
61393;SDS011;48555;50.952;-0.120;2024-02-26T10:08:12;2.40;;;0.95;;
61393;SDS011;48555;50.952;-0.120;2024-02-26T10:10:39;3.35;;;1.10;;
61393;SDS011;48555;50.952;-0.120;2024-02-26T10:13:04;2.58;;;1.17;;
61393;SDS011;48555;50.952;-0.120;2024-02-26T10:15:35;1.93;;;1.03;;
61393;SDS011;48555;50.952;-0.120;2024-02-26T10:18:03;3.17;;;0.90;;
61393;SDS011;48555;50.952;-0.120;2024-02-26T10:20:29;3.53;;;1.00;;
61393;SDS011;48555;50.952;-0.120;2024-02-26T10:22:56;3.63;;;1.23;;
61393;SDS011;48555;50.952;-0.120;2024-02-26T10:25:22;2.53;;;1.25;;
61393;SDS011;48555;50.952;-0.120;2024-02-26T10:27:47;6.13;;;1.52;;
61393;SDS011;48555;50.952;-0.120;2024-02-26T10:30:16;5.63;;;1.30;;
61393;SDS011;48555;50.952;-0.120;2024-02-26T10:32:45;8.20;;;1.58;;
61393;SDS011;48555;50.952;-0.120;2024-02-26T10:35:14;3.17;;;1.25;;
61393;SDS011;48555;50.952;-0.120;2024-02-26T10:37:40;2.78;;;0.93;;
61393;SDS011;48555;50.952;-0.120;2024-02-26T10:40:09;4.07;;;1.60;;
61393;SDS011;48555;50.952;-0.120;2024-02-26T10:42:36;3.28;;;1.10;;
61393;SDS011;48555;50.952;-0.120;2024-02-26T10:45:01;4.13;;;1.13;;
61393;SDS011;48555;50.952;-0.120;2024-02-26T10:47:27;2.40;;;0.90;;
61393;SDS011;48555;50.952;-0.120;2024-02-26T10:49:54;3.08;;;1.02;;
61393;SDS011;48555;50.952;-0.120;2024-02-26T10:52:21;3.13;;;1.40;;
61393;SDS011;48555;50.952;-0.120;2024-02-26T10:54:48;2.22;;;1.08;;
61393;SDS011;48555;50.952;-0.120;2024-02-26T10:57:16;2.38;;;1.10;;
61393;SDS011;48555;50.952;-0.120;2024-02-26T10:59:43;3.78;;;0.95;;
61393;SDS011;48555;50.952;-0.120;2024-02-26T11:02:09;2.15;;;0.90;;
61393;SDS011;48555;50.952;-0.120;2024-02-26T11:04:36;5.13;;;1.15;;
61393;SDS011;48555;50.952;-0.120;2024-02-26T11:07:02;1.63;;;0.93;;
61393;SDS011;48555;50.952;-0.120;2024-02-26T11:09:29;3.88;;;1.05;;
61393;SDS011;48555;50.952;-0.120;2024-02-26T11:11:56;3.38;;;1.17;;
61393;SDS011;48555;50.952;-0.120;2024-02-26T11:14:22;6.60;;;1.40;;
61393;SDS011;48555;50.952;-0.120;2024-02-26T11:16:51;2.38;;;0.55;;
61393;SDS011;48555;50.952;-0.120;2024-02-26T11:19:17;3.03;;;0.93;;
61393;SDS011;48555;50.952;-0.120;2024-02-26T11:21:43;2.53;;;0.90;;
61393;SDS011;48555;50.952;-0.120;2024-02-26T11:24:11;2.78;;;0.93;;
61393;SDS011;48555;50.952;-0.120;2024-02-26T11:26:45;5.00;;;0.90;;
61393;SDS011;48555;50.952;-0.120;2024-02-26T11:29:16;3.28;;;1.08;;
61393;SDS011;48555;50.952;-0.120;2024-02-26T11:31:46;4.60;;;1.00;;
61393;SDS011;48555;50.952;-0.120;2024-02-26T11:34:11;2.30;;;1.00;;
61393;SDS011;48555;50.952;-0.120;2024-02-26T11:36:37;3.40;;;0.82;;
61393;SDS011;48555;50.952;-0.120;2024-02-26T11:39:04;3.55;;;1.45;;
61393;SDS011;48555;50.952;-0.120;2024-02-26T11:41:29;3.17;;;1.38;;
61393;SDS011;48555;50.952;-0.120;2024-02-26T11:43:59;2.47;;;0.80;;
61393;SDS011;48555;50.952;-0.120;2024-02-26T11:48:56;1.60;;;0.70;;
61393;SDS011;48555;50.952;-0.120;2024-02-26T11:51:27;2.95;;;1.27;;
61393;SDS011;48555;50.952;-0.120;2024-02-26T11:53:57;1.92;;;0.80;;
61393;SDS011;48555;50.952;-0.120;2024-02-26T11:56:23;2.42;;;1.35;;
61393;SDS011;48555;50.952;-0.120;2024-02-26T11:58:57;2.53;;;1.48;;
61393;SDS011;48555;50.952;-0.120;2024-02-26T12:04:01;2.22;;;0.68;;
61393;SDS011;48555;50.952;-0.120;2024-02-26T12:06:27;2.78;;;0.88;;
61393;SDS011;48555;50.952;-0.120;2024-02-26T12:08:53;2.55;;;0.68;;
61393;SDS011;48555;50.952;-0.120;2024-02-26T12:11:20;2.30;;;0.60;;
61393;SDS011;48555;50.952;-0.120;2024-02-26T12:13:46;1.55;;;0.77;;
61393;SDS011;48555;50.952;-0.120;2024-02-26T12:16:21;1.80;;;0.98;;
61393;SDS011;48555;50.952;-0.120;2024-02-26T12:19:01;1.30;;;0.95;;
61393;SDS011;48555;50.952;-0.120;2024-02-26T12:21:28;2.10;;;0.90;;
61393;SDS011;48555;50.952;-0.120;2024-02-26T12:23:54;3.60;;;1.20;;
61393;SDS011;48555;50.952;-0.120;2024-02-26T12:26:19;2.80;;;1.35;;
61393;SDS011;48555;50.952;-0.120;2024-02-26T12:28:46;3.65;;;1.27;;
61393;SDS011;48555;50.952;-0.120;2024-02-26T12:31:12;4.05;;;1.23;;
61393;SDS011;48555;50.952;-0.120;2024-02-26T12:33:37;3.33;;;1.05;;
61393;SDS011;48555;50.952;-0.120;2024-02-26T12:36:03;2.65;;;0.75;;
61393;SDS011;48555;50.952;-0.120;2024-02-26T12:38:29;2.25;;;0.80;;
61393;SDS011;48555;50.952;-0.120;2024-02-26T12:40:55;1.23;;;0.63;;
61393;SDS011;48555;50.952;-0.120;2024-02-26T12:43:20;3.70;;;0.90;;
61393;SDS011;48555;50.952;-0.120;2024-02-26T12:45:46;4.05;;;1.52;;
61393;SDS011;48555;50.952;-0.120;2024-02-26T12:48:12;1.95;;;0.98;;
61393;SDS011;48555;50.952;-0.120;2024-02-26T12:50:37;2.50;;;0.90;;
61393;SDS011;48555;50.952;-0.120;2024-02-26T12:53:03;3.35;;;1.00;;
61393;SDS011;48555;50.952;-0.120;2024-02-26T12:55:28;1.60;;;0.80;;
61393;SDS011;48555;50.952;-0.120;2024-02-26T12:57:55;3.72;;;0.82;;
61393;SDS011;48555;50.952;-0.120;2024-02-26T13:00:22;2.40;;;0.98;;
61393;SDS011;48555;50.952;-0.120;2024-02-26T13:02:50;3.72;;;1.30;;
61393;SDS011;48555;50.952;-0.120;2024-02-26T13:05:17;2.35;;;0.98;;
61393;SDS011;48555;50.952;-0.120;2024-02-26T13:07:44;3.45;;;1.30;;
61393;SDS011;48555;50.952;-0.120;2024-02-26T13:10:12;2.33;;;0.98;;
61393;SDS011;48555;50.952;-0.120;2024-02-26T13:12:42;2.53;;;1.00;;
61393;SDS011;48555;50.952;-0.120;2024-02-26T13:15:15;2.67;;;0.80;;
61393;SDS011;48555;50.952;-0.120;2024-02-26T13:17:42;2.95;;;0.90;;
61393;SDS011;48555;50.952;-0.120;2024-02-26T13:20:08;0.88;;;0.50;;
61393;SDS011;48555;50.952;-0.120;2024-02-26T13:22:35;2.38;;;0.70;;
61393;SDS011;48555;50.952;-0.120;2024-02-26T13:25:00;1.10;;;0.68;;
61393;SDS011;48555;50.952;-0.120;2024-02-26T13:27:28;4.13;;;1.10;;
61393;SDS011;48555;50.952;-0.120;2024-02-26T13:30:09;1.88;;;0.70;;
61393;SDS011;48555;50.952;-0.120;2024-02-26T13:32:37;2.45;;;1.08;;
61393;SDS011;48555;50.952;-0.120;2024-02-26T13:35:07;3.33;;;1.05;;
61393;SDS011;48555;50.952;-0.120;2024-02-26T13:37:34;2.25;;;0.93;;
61393;SDS011;48555;50.952;-0.120;2024-02-26T13:40:03;2.72;;;0.82;;
61393;SDS011;48555;50.952;-0.120;2024-02-26T13:42:38;1.23;;;0.70;;
61393;SDS011;48555;50.952;-0.120;2024-02-26T13:45:04;2.35;;;0.90;;
61393;SDS011;48555;50.952;-0.120;2024-02-26T13:47:31;3.58;;;1.42;;
61393;SDS011;48555;50.952;-0.120;2024-02-26T13:49:58;2.47;;;0.95;;
61393;SDS011;48555;50.952;-0.120;2024-02-26T13:52:23;3.35;;;0.82;;
61393;SDS011;48555;50.952;-0.120;2024-02-26T13:54:49;3.65;;;0.90;;
61393;SDS011;48555;50.952;-0.120;2024-02-26T13:57:14;2.13;;;0.70;;
61393;SDS011;48555;50.952;-0.120;2024-02-26T13:59:39;1.92;;;0.70;;
61393;SDS011;48555;50.952;-0.120;2024-02-26T14:02:07;1.92;;;0.85;;
61393;SDS011;48555;50.952;-0.120;2024-02-26T14:04:36;1.77;;;0.82;;
61393;SDS011;48555;50.952;-0.120;2024-02-26T14:07:02;3.28;;;0.90;;
61393;SDS011;48555;50.952;-0.120;2024-02-26T14:09:28;6.93;;;1.48;;
61393;SDS011;48555;50.952;-0.120;2024-02-26T14:11:54;1.73;;;0.57;;
61393;SDS011;48555;50.952;-0.120;2024-02-26T14:14:19;2.17;;;0.43;;
61393;SDS011;48555;50.952;-0.120;2024-02-26T14:16:44;1.70;;;0.68;;
61393;SDS011;48555;50.952;-0.120;2024-02-26T14:19:09;1.77;;;0.68;;
61393;SDS011;48555;50.952;-0.120;2024-02-26T14:21:35;2.67;;;0.80;;
61393;SDS011;48555;50.952;-0.120;2024-02-26T14:24:00;2.83;;;1.00;;
61393;SDS011;48555;50.952;-0.120;2024-02-26T14:26:26;1.40;;;0.63;;
61393;SDS011;48555;50.952;-0.120;2024-02-26T14:28:51;2.90;;;0.90;;